JP-0006 weather

CLOSED Kyūshū Airport
Kokura Minami-ku, Fukuoka Prefecture, Japan

Public forecast

Using degrees Celsius for public forecast. Weather courtesy of forecast.io.

Closest aviation weather report (METAR) to Kyūshū Airport

Closest report is Kitakyūshū Airport, 4.4 nm (8.2 km) E. Retrieved 2020/01/25 10:00 UTC (47 minutes ago):

RJFR 251000Z 15005KT 9999 -RA FEW015 SCT030 BKN050 08/06 Q1026

Closest aviation forecast (TAF) to Kyūshū Airport

Closest forecast is Kitakyūshū Airport, 4.4 nm (8.2 km) E. Retrieved 2020/01/25 06:30 UTC (4 hours ago):

TAF TAF RJFR 250506Z 2506/2612 10008KT 9999 -RA FEW015 BKN030 TEMPO 2515/2521 4000 -SHRA BR FEW004 BKN008 BKN010 BECMG 2518/2521 04009KT